createdAt,value
2022-08-03T00:01:18.401Z,21.30
2022-08-03T00:06:32.662Z,21.30
2022-08-03T00:09:16.542Z,21.20
2022-08-03T00:11:45.364Z,21.20
2022-08-03T00:14:13.567Z,21.20
2022-08-03T00:16:40.823Z,21.20
2022-08-03T00:19:07.681Z,21.20
2022-08-03T00:21:34.342Z,21.20
2022-08-03T00:24:01.425Z,21.20
2022-08-03T00:26:28.070Z,21.10
2022-08-03T00:28:54.726Z,21.10
2022-08-03T00:31:24.236Z,21.10
2022-08-03T00:34:06.988Z,21.10
2022-08-03T00:36:36.286Z,21.10
2022-08-03T00:39:04.192Z,21.10
2022-08-03T00:41:33.444Z,21.10
2022-08-03T00:44:00.361Z,21.10
2022-08-03T00:46:27.045Z,21.00
2022-08-03T00:48:53.931Z,21.00
2022-08-03T00:51:22.165Z,21.00
2022-08-03T00:53:49.724Z,21.00
2022-08-03T00:56:16.983Z,21.00
2022-08-03T00:58:47.287Z,21.00
2022-08-03T01:01:15.183Z,21.00
2022-08-03T01:03:42.189Z,20.90
2022-08-03T01:06:18.578Z,21.00
2022-08-03T01:09:25.791Z,20.90
2022-08-03T01:12:05.956Z,20.90
2022-08-03T01:15:00.823Z,20.90
2022-08-03T01:17:58.179Z,20.80
2022-08-03T01:20:33.216Z,20.80
2022-08-03T01:26:45.353Z,20.80
2022-08-03T01:29:48.624Z,20.70
2022-08-03T01:33:00.185Z,20.70
2022-08-03T01:35:28.035Z,20.70
2022-08-03T01:38:00.692Z,20.70
2022-08-03T01:40:29.727Z,20.60
2022-08-03T01:42:59.700Z,20.60
2022-08-03T01:45:28.359Z,20.60
2022-08-03T01:48:01.677Z,20.60
2022-08-03T01:50:30.649Z,20.60
2022-08-03T01:52:58.877Z,20.60
2022-08-03T01:55:29.822Z,20.60
2022-08-03T01:58:04.562Z,20.60
2022-08-03T02:00:37.509Z,20.60
2022-08-03T02:03:07.046Z,20.50
2022-08-03T02:05:34.153Z,20.50
2022-08-03T02:08:09.178Z,20.50
2022-08-03T02:13:33.137Z,20.50
2022-08-03T02:16:02.274Z,20.50
2022-08-03T02:18:30.602Z,20.50
2022-08-03T02:20:58.768Z,20.50
2022-08-03T02:23:25.486Z,20.40
2022-08-03T02:25:57.795Z,20.40
2022-08-03T02:28:39.926Z,20.40
2022-08-03T02:31:13.560Z,20.40
2022-08-03T02:33:52.458Z,20.40
2022-08-03T02:39:14.207Z,20.40
2022-08-03T02:42:09.200Z,20.40
2022-08-03T02:44:37.724Z,20.30
2022-08-03T02:47:10.274Z,20.30
2022-08-03T02:49:50.962Z,20.30
2022-08-03T02:52:24.205Z,20.30
2022-08-03T02:54:54.593Z,20.30
2022-08-03T02:57:25.345Z,20.30
2022-08-03T02:59:53.288Z,20.30
2022-08-03T03:02:20.876Z,20.30
2022-08-03T03:05:52.793Z,20.20
2022-08-03T03:07:52.248Z,20.20
2022-08-03T03:10:24.418Z,20.20
2022-08-03T03:12:55.758Z,20.20
2022-08-03T03:15:26.209Z,20.20
2022-08-03T03:17:53.856Z,20.20
2022-08-03T03:20:28.965Z,20.20
2022-08-03T03:22:58.485Z,20.10
2022-08-03T03:25:30.134Z,20.10
2022-08-03T03:28:10.012Z,20.10
2022-08-03T03:30:40.776Z,20.10
2022-08-03T03:33:08.585Z,20.00
2022-08-03T03:35:39.454Z,20.00
2022-08-03T03:38:10.795Z,20.10
2022-08-03T03:40:39.136Z,20.00
2022-08-03T03:43:09.874Z,20.00
2022-08-03T03:45:37.394Z,20.00
2022-08-03T03:48:05.348Z,20.00
2022-08-03T03:50:33.546Z,20.00
2022-08-03T03:53:01.099Z,20.00
2022-08-03T03:55:27.993Z,19.90
2022-08-03T03:57:54.803Z,19.90
2022-08-03T04:00:22.023Z,19.90
2022-08-03T04:02:48.775Z,19.90
2022-08-03T04:05:34.429Z,19.90
2022-08-03T04:08:34.687Z,19.90
2022-08-03T04:11:29.177Z,19.90
2022-08-03T04:14:12.313Z,19.80
2022-08-03T04:19:52.272Z,19.80
2022-08-03T04:22:25.346Z,19.80
2022-08-03T04:25:08.887Z,19.80
2022-08-03T04:27:38.739Z,19.80
2022-08-03T04:30:07.485Z,19.80
2022-08-03T04:32:36.728Z,19.80
2022-08-03T04:35:16.123Z,19.80
2022-08-03T04:37:49.532Z,19.80
2022-08-03T04:40:29.892Z,19.80
2022-08-03T04:43:00.705Z,19.70
2022-08-03T04:45:31.346Z,19.70
2022-08-03T04:47:59.481Z,19.70
2022-08-03T04:50:29.781Z,19.70
2022-08-03T04:52:56.882Z,19.70
2022-08-03T04:55:30.787Z,19.70
2022-08-03T04:57:58.761Z,19.70
2022-08-03T05:00:25.900Z,19.70
2022-08-03T05:02:59.322Z,19.70
2022-08-03T05:05:49.939Z,19.70
2022-08-03T05:08:30.572Z,19.70
2022-08-03T05:11:15.498Z,19.70
2022-08-03T05:16:28.125Z,19.70
2022-08-03T05:18:54.744Z,19.70
2022-08-03T05:21:21.402Z,19.70
2022-08-03T05:23:48.049Z,19.70
2022-08-03T05:26:14.726Z,19.70
2022-08-03T05:28:51.246Z,19.70
2022-08-03T05:31:18.526Z,19.70
2022-08-03T05:33:45.193Z,19.70
2022-08-03T05:36:12.562Z,19.70
2022-08-03T05:38:39.301Z,19.70
2022-08-03T05:41:21.658Z,19.80
2022-08-03T05:43:52.606Z,19.70
2022-08-03T05:46:20.300Z,19.80
2022-08-03T05:48:49.901Z,19.70
2022-08-03T05:51:16.769Z,19.80
2022-08-03T05:53:44.239Z,19.80
2022-08-03T05:56:14.172Z,19.80
2022-08-03T05:58:43.684Z,19.80
2022-08-03T06:01:10.359Z,19.90
2022-08-03T06:03:36.992Z,19.90
2022-08-03T06:06:03.727Z,19.90
2022-08-03T06:08:30.367Z,20.00
2022-08-03T06:10:57.029Z,20.00
2022-08-03T06:13:23.656Z,20.10
2022-08-03T06:15:50.353Z,20.10
2022-08-03T06:18:16.998Z,20.20
2022-08-03T06:20:43.655Z,20.20
2022-08-03T06:23:16.012Z,20.30
2022-08-03T06:25:43.038Z,20.30
2022-08-03T06:28:18.943Z,20.30
2022-08-03T06:30:55.733Z,20.40
2022-08-03T06:33:26.388Z,20.40
2022-08-03T06:36:13.036Z,20.50
2022-08-03T06:38:39.659Z,20.50
2022-08-03T06:41:06.248Z,20.60
2022-08-03T06:43:35.871Z,20.60
2022-08-03T06:46:02.816Z,20.70
2022-08-03T06:48:30.143Z,20.70
2022-08-03T06:50:56.919Z,20.80
2022-08-03T06:53:23.599Z,20.80
2022-08-03T06:55:54.348Z,20.90
2022-08-03T06:58:21.409Z,20.90
2022-08-03T07:00:48.224Z,21.00
2022-08-03T07:03:15.120Z,21.00
2022-08-03T07:05:42.918Z,21.00
2022-08-03T07:08:10.154Z,21.10
2022-08-03T07:10:38.242Z,21.10
2022-08-03T07:13:05.424Z,21.20
2022-08-03T07:15:54.477Z,21.20
2022-08-03T07:18:24.613Z,21.20
2022-08-03T07:20:57.386Z,21.20
2022-08-03T07:23:24.056Z,21.30
2022-08-03T07:25:50.842Z,21.30
2022-08-03T07:28:17.610Z,21.40
2022-08-03T07:30:44.296Z,21.50
2022-08-03T07:33:11.018Z,21.50
2022-08-03T07:35:37.736Z,21.50
2022-08-03T07:38:04.363Z,21.60
2022-08-03T07:40:31.698Z,21.60
2022-08-03T07:42:58.907Z,21.70
2022-08-03T07:45:26.612Z,21.80
2022-08-03T07:47:54.254Z,21.80
2022-08-03T07:50:22.038Z,21.90
2022-08-03T07:52:49.759Z,21.90
2022-08-03T07:55:18.197Z,22.00
2022-08-03T07:57:44.985Z,22.10
2022-08-03T08:00:19.347Z,22.20
2022-08-03T08:02:46.329Z,22.30
2022-08-03T08:05:13.254Z,22.30
2022-08-03T08:07:40.585Z,22.40
2022-08-03T08:10:09.893Z,22.40
2022-08-03T08:12:37.745Z,22.50
2022-08-03T08:15:06.095Z,22.60
2022-08-03T08:17:45.619Z,22.70
2022-08-03T08:20:22.460Z,22.80
2022-08-03T08:22:57.902Z,22.90
2022-08-03T08:25:25.461Z,22.90
2022-08-03T08:28:29.371Z,23.00
2022-08-03T08:30:39.036Z,23.10
2022-08-03T08:33:05.639Z,23.20
2022-08-03T08:35:32.287Z,23.30
2022-08-03T08:38:04.066Z,23.40
2022-08-03T08:40:32.859Z,23.40
2022-08-03T08:42:59.580Z,23.50
2022-08-03T08:45:27.425Z,23.60
2022-08-03T08:47:59.750Z,23.70
2022-08-03T08:50:29.706Z,23.80
2022-08-03T08:53:00.191Z,23.90
2022-08-03T08:55:26.936Z,23.90
2022-08-03T08:57:59.269Z,24.00
2022-08-03T09:00:25.986Z,24.10
2022-08-03T09:02:52.632Z,24.20
2022-08-03T09:05:27.790Z,24.30
2022-08-03T09:08:07.044Z,24.30
2022-08-03T09:10:34.739Z,24.40
2022-08-03T09:13:01.451Z,24.50
2022-08-03T09:15:31.328Z,24.60
2022-08-03T09:18:03.402Z,24.70
2022-08-03T09:20:33.178Z,24.70
2022-08-03T09:23:01.170Z,24.70
2022-08-03T09:25:32.536Z,24.80
2022-08-03T09:28:12.455Z,24.80
2022-08-03T09:30:44.405Z,24.80
2022-08-03T09:33:13.638Z,24.90
2022-08-03T09:35:54.435Z,25.00
2022-08-03T09:38:24.033Z,25.00
2022-08-03T09:40:51.585Z,25.10
2022-08-03T09:43:20.488Z,25.20
2022-08-03T09:45:47.220Z,25.30
2022-08-03T09:48:31.090Z,25.30
2022-08-03T09:51:14.227Z,25.40
2022-08-03T09:53:59.272Z,25.50
2022-08-03T09:56:47.611Z,25.60
2022-08-03T09:59:24.583Z,25.90
2022-08-03T10:01:53.050Z,25.90
2022-08-03T10:04:19.945Z,26.10
2022-08-03T10:07:09.138Z,26.30
2022-08-03T10:09:36.672Z,26.40
2022-08-03T10:12:11.221Z,26.50
2022-08-03T10:14:39.587Z,26.60
2022-08-03T10:17:06.367Z,26.70
2022-08-03T10:19:33.843Z,26.70
2022-08-03T10:22:12.799Z,26.80
2022-08-03T10:24:42.366Z,26.90
2022-08-03T10:27:11.450Z,26.90
2022-08-03T10:29:39.665Z,27.00
2022-08-03T10:32:44.002Z,27.00
2022-08-03T10:35:20.352Z,27.10
2022-08-03T10:37:58.792Z,27.10
2022-08-03T10:43:21.445Z,27.20
2022-08-03T10:45:48.935Z,27.40
2022-08-03T10:48:16.476Z,27.50
2022-08-03T10:50:44.108Z,27.50
2022-08-03T10:53:10.742Z,27.60
2022-08-03T10:56:05.631Z,27.60
2022-08-03T10:58:53.212Z,27.70
2022-08-03T11:01:59.024Z,27.70
2022-08-03T11:04:29.298Z,27.80
2022-08-03T11:07:19.868Z,27.90
2022-08-03T11:09:56.937Z,28.00
2022-08-03T11:12:32.650Z,28.00
2022-08-03T11:15:06.475Z,28.10
2022-08-03T11:17:46.772Z,28.10
2022-08-03T11:20:53.992Z,28.20
2022-08-03T11:24:03.965Z,28.30
2022-08-03T11:26:33.817Z,28.30
2022-08-03T11:29:31.485Z,28.30
2022-08-03T11:31:58.580Z,28.40
2022-08-03T11:34:25.756Z,28.50
2022-08-03T11:37:22.505Z,28.50
2022-08-03T11:40:02.736Z,28.60
2022-08-03T11:42:53.004Z,28.60
2022-08-03T11:45:19.833Z,28.70
2022-08-03T11:47:50.737Z,28.70
2022-08-03T11:50:19.833Z,28.80
2022-08-03T11:52:47.057Z,28.80
2022-08-03T11:55:15.979Z,28.80
2022-08-03T11:59:15.187Z,28.80
2022-08-03T12:00:32.221Z,28.90
2022-08-03T12:03:11.942Z,29.00
2022-08-03T12:05:41.912Z,29.00
2022-08-03T12:08:28.129Z,29.10
2022-08-03T12:10:56.486Z,29.20
2022-08-03T12:14:44.470Z,29.30
2022-08-03T12:16:11.075Z,29.30
2022-08-03T12:18:37.835Z,29.30
2022-08-03T12:21:12.048Z,29.40
2022-08-03T12:23:39.287Z,29.40
2022-08-03T12:26:09.011Z,29.40
2022-08-03T12:28:38.408Z,29.40
2022-08-03T12:31:12.248Z,29.40
2022-08-03T12:34:03.103Z,29.40
2022-08-03T12:36:32.160Z,29.50
2022-08-03T12:39:01.516Z,29.50
2022-08-03T12:41:30.584Z,29.60
2022-08-03T12:43:57.556Z,29.70
2022-08-03T12:46:30.975Z,29.80
2022-08-03T12:49:10.955Z,29.90
2022-08-03T12:52:04.102Z,29.90
2022-08-03T12:54:35.922Z,30.00
2022-08-03T12:57:16.347Z,30.00
2022-08-03T12:59:55.847Z,30.10
2022-08-03T13:02:24.776Z,30.10
2022-08-03T13:04:53.120Z,30.20
2022-08-03T13:07:20.834Z,30.30
2022-08-03T13:09:56.304Z,30.40
2022-08-03T13:12:25.358Z,30.50
2022-08-03T13:14:55.250Z,30.50
2022-08-03T13:17:22.446Z,30.60
2022-08-03T13:19:49.851Z,30.70
2022-08-03T13:22:21.424Z,30.80
2022-08-03T13:24:50.300Z,30.90
2022-08-03T13:28:01.340Z,31.10
2022-08-03T13:30:04.591Z,31.20
2022-08-03T13:32:31.296Z,31.30
2022-08-03T13:34:57.974Z,31.30
2022-08-03T13:37:25.703Z,31.30
2022-08-03T13:39:58.787Z,31.40
2022-08-03T13:42:29.325Z,31.60
2022-08-03T13:44:56.142Z,31.80
2022-08-03T13:47:23.091Z,31.90
2022-08-03T13:49:59.886Z,32.00
2022-08-03T13:52:37.704Z,32.10
2022-08-03T13:55:06.144Z,32.20
2022-08-03T13:58:11.371Z,32.30
2022-08-03T14:00:26.984Z,32.40
2022-08-03T14:03:13.260Z,32.50
2022-08-03T14:05:42.120Z,32.60
2022-08-03T14:08:09.468Z,32.70
2022-08-03T14:10:37.933Z,32.90
2022-08-03T14:13:05.281Z,32.90
2022-08-03T14:15:32.140Z,33.10
2022-08-03T14:18:04.133Z,33.20
2022-08-03T14:20:37.861Z,33.40
2022-08-03T14:23:15.867Z,33.40
2022-08-03T14:25:50.179Z,33.60
2022-08-03T14:28:23.396Z,33.70
2022-08-03T14:30:55.715Z,33.60
2022-08-03T14:33:23.134Z,33.50
2022-08-03T14:35:50.733Z,33.50
2022-08-03T14:38:18.273Z,33.50
2022-08-03T14:40:44.969Z,33.50
2022-08-03T14:43:11.664Z,33.50
2022-08-03T14:45:39.162Z,33.60
2022-08-03T14:50:12.593Z,33.60
2022-08-03T14:50:55.035Z,33.60
2022-08-03T14:53:21.968Z,33.60
2022-08-03T14:55:50.957Z,33.60
2022-08-03T14:58:21.214Z,33.70
2022-08-03T15:00:49.091Z,33.70
2022-08-03T15:03:16.854Z,33.70
2022-08-03T15:05:44.072Z,33.60
2022-08-03T15:08:10.788Z,33.60
2022-08-03T15:10:44.369Z,33.60
2022-08-03T15:13:12.942Z,33.70
2022-08-03T15:15:40.067Z,33.70
2022-08-03T15:18:07.093Z,33.60
2022-08-03T15:20:43.892Z,33.50
2022-08-03T15:23:11.552Z,33.40
2022-08-03T15:26:31.813Z,33.40
2022-08-03T15:28:24.924Z,33.20
2022-08-03T15:30:54.923Z,33.10
2022-08-03T15:33:21.822Z,33.10
2022-08-03T15:35:49.633Z,33.10
2022-08-03T15:38:16.287Z,33.00
2022-08-03T15:40:42.932Z,32.90
2022-08-03T15:43:09.715Z,32.80
2022-08-03T15:45:37.141Z,32.90
2022-08-03T15:48:05.289Z,32.90
2022-08-03T15:50:31.917Z,32.80
2022-08-03T15:52:58.565Z,32.80
2022-08-03T15:55:25.230Z,32.80
2022-08-03T15:59:10.513Z,32.80
2022-08-03T16:00:38.931Z,32.80
2022-08-03T16:03:06.018Z,32.70
2022-08-03T16:05:32.870Z,32.70
2022-08-03T16:08:03.493Z,32.60
2022-08-03T16:10:32.260Z,32.70
2022-08-03T16:12:59.868Z,32.70
2022-08-03T16:15:26.875Z,32.70
2022-08-03T16:17:53.602Z,32.80
2022-08-03T16:20:31.307Z,32.90
2022-08-03T16:23:08.460Z,32.90
2022-08-03T16:25:39.451Z,33.00
2022-08-03T16:28:13.498Z,33.10
2022-08-03T16:30:42.027Z,33.10
2022-08-03T16:33:09.138Z,33.20
2022-08-03T16:35:35.799Z,33.10
2022-08-03T16:38:07.864Z,33.10
2022-08-03T16:40:36.581Z,33.20
2022-08-03T16:43:18.274Z,33.20
2022-08-03T16:45:46.719Z,33.10
2022-08-03T16:48:17.226Z,33.00
2022-08-03T16:50:44.553Z,32.90
2022-08-03T16:53:15.559Z,32.90
2022-08-03T16:55:52.372Z,32.90
2022-08-03T16:58:34.741Z,32.90
2022-08-03T17:01:22.413Z,32.90
2022-08-03T17:04:01.317Z,32.90
2022-08-03T17:06:34.159Z,32.90
2022-08-03T17:09:03.268Z,32.80
2022-08-03T17:11:32.147Z,32.80
2022-08-03T17:13:59.992Z,32.60
2022-08-03T17:16:26.934Z,32.50
2022-08-03T17:19:02.466Z,32.40
2022-08-03T17:21:32.887Z,32.40
2022-08-03T17:24:15.696Z,32.30
2022-08-03T17:26:50.908Z,32.20
2022-08-03T17:29:19.471Z,32.20
2022-08-03T17:31:54.143Z,32.10
2022-08-03T17:34:26.318Z,32.00
2022-08-03T17:37:27.160Z,31.90
2022-08-03T17:39:58.820Z,31.90
2022-08-03T17:42:30.678Z,31.80
2022-08-03T17:45:15.543Z,31.80
2022-08-03T17:47:43.718Z,31.70
2022-08-03T17:50:24.701Z,31.60
2022-08-03T17:53:07.581Z,31.60
2022-08-03T17:55:55.587Z,31.50
2022-08-03T17:59:08.706Z,31.40
2022-08-03T18:02:12.278Z,31.30
2022-08-03T18:05:16.219Z,31.20
2022-08-03T18:07:50.796Z,31.10
2022-08-03T18:10:33.614Z,30.90
2022-08-03T18:13:10.323Z,30.90
2022-08-03T18:15:48.239Z,30.80
2022-08-03T18:18:17.125Z,30.70
2022-08-03T18:21:02.153Z,30.60
2022-08-03T18:23:36.563Z,30.40
2022-08-03T18:26:07.761Z,30.30
2022-08-03T18:28:40.536Z,30.20
2022-08-03T18:31:13.012Z,30.10
2022-08-03T18:34:16.176Z,30.10
2022-08-03T18:36:49.235Z,30.00
2022-08-03T18:39:16.689Z,29.90
2022-08-03T18:41:46.779Z,29.80
2022-08-03T18:44:52.511Z,29.70
2022-08-03T18:47:07.363Z,29.60
2022-08-03T18:50:11.256Z,29.50
2022-08-03T18:52:53.256Z,29.50
2022-08-03T18:56:01.467Z,29.40
2022-08-03T18:59:05.057Z,29.30
2022-08-03T19:02:00.269Z,29.20
2022-08-03T19:04:38.708Z,29.10
2022-08-03T19:07:09.367Z,28.90
2022-08-03T19:09:48.180Z,28.70
2022-08-03T19:12:42.277Z,28.60
2022-08-03T19:15:13.788Z,28.50
2022-08-03T19:17:53.731Z,28.30
2022-08-03T19:20:25.594Z,28.30
2022-08-03T19:22:54.226Z,28.20
2022-08-03T19:25:24.562Z,28.10
2022-08-03T19:28:06.341Z,28.10
2022-08-03T19:30:38.645Z,28.10
2022-08-03T19:33:08.857Z,28.00
2022-08-03T19:35:54.698Z,28.00
2022-08-03T19:38:29.211Z,27.90
2022-08-03T19:40:59.579Z,27.80
2022-08-03T19:43:53.665Z,27.80
2022-08-03T19:46:31.127Z,27.80
2022-08-03T19:49:14.953Z,27.60
2022-08-03T19:52:01.713Z,27.50
2022-08-03T19:54:53.850Z,27.30
2022-08-03T19:57:24.892Z,27.30
2022-08-03T19:59:53.802Z,27.10
2022-08-03T20:02:25.740Z,27.00
2022-08-03T20:04:57.869Z,26.90
2022-08-03T20:07:30.989Z,26.90
2022-08-03T20:10:01.584Z,26.80
2022-08-03T20:12:29.426Z,26.80
2022-08-03T20:14:59.415Z,26.70
2022-08-03T20:17:55.030Z,26.60
2022-08-03T20:20:18.436Z,26.50
2022-08-03T20:22:48.094Z,26.30
2022-08-03T20:25:20.869Z,26.20
2022-08-03T20:28:07.281Z,26.10
2022-08-03T20:30:46.313Z,26.00
2022-08-03T20:33:19.002Z,25.90
2022-08-03T20:35:48.935Z,25.80
2022-08-03T20:38:40.933Z,25.80
2022-08-03T20:41:10.636Z,25.70
2022-08-03T20:43:37.455Z,25.70
2022-08-03T20:46:29.598Z,25.60
2022-08-03T20:48:51.323Z,25.50
2022-08-03T20:51:20.169Z,25.50
2022-08-03T20:54:09.645Z,25.50
2022-08-03T20:56:50.287Z,25.40
2022-08-03T20:59:18.631Z,25.40
2022-08-03T21:01:45.833Z,25.30
2022-08-03T21:04:22.187Z,25.30
2022-08-03T21:06:53.907Z,25.30
2022-08-03T21:09:24.989Z,25.20
2022-08-03T21:12:03.023Z,25.20
2022-08-03T21:14:43.584Z,25.10
2022-08-03T21:17:31.292Z,25.10
2022-08-03T21:19:57.535Z,25.00
2022-08-03T21:22:26.169Z,25.00
2022-08-03T21:24:55.913Z,25.00
2022-08-03T21:27:24.028Z,25.00
2022-08-03T21:29:53.059Z,24.90
2022-08-03T21:32:32.547Z,24.90
2022-08-03T21:35:00.271Z,24.80
2022-08-03T21:37:27.845Z,24.80
2022-08-03T21:39:56.233Z,24.70
2022-08-03T21:42:26.497Z,24.70
2022-08-03T21:44:56.355Z,24.70
2022-08-03T21:47:24.163Z,24.70
2022-08-03T21:50:08.900Z,24.70
2022-08-03T21:52:49.198Z,24.60
2022-08-03T21:55:20.464Z,24.60
2022-08-03T21:57:53.051Z,24.50
2022-08-03T22:00:22.820Z,24.50
2022-08-03T22:02:54.511Z,24.50
2022-08-03T22:05:28.905Z,24.40
2022-08-03T22:08:09.600Z,24.40
2022-08-03T22:10:36.746Z,24.40
2022-08-03T22:13:03.593Z,24.40
2022-08-03T22:15:30.805Z,24.40
2022-08-03T22:17:59.017Z,24.30
2022-08-03T22:20:25.951Z,24.30
2022-08-03T22:22:59.200Z,24.30
2022-08-03T22:25:29.239Z,24.30
2022-08-03T22:27:57.903Z,24.20
2022-08-03T22:30:25.344Z,24.10
2022-08-03T22:32:54.265Z,24.10
2022-08-03T22:35:23.792Z,24.10
2022-08-03T22:37:53.827Z,24.10
2022-08-03T22:40:20.826Z,24.00
2022-08-03T22:42:49.524Z,24.00
2022-08-03T22:46:07.694Z,23.90
2022-08-03T22:48:07.909Z,23.90
2022-08-03T22:50:34.914Z,23.90
2022-08-03T22:53:01.664Z,23.90
2022-08-03T22:55:28.540Z,23.80
2022-08-03T22:57:56.208Z,23.80
2022-08-03T23:00:23.687Z,23.80
2022-08-03T23:02:53.494Z,23.80
2022-08-03T23:06:00.649Z,23.70
2022-08-03T23:08:14.420Z,23.70
2022-08-03T23:10:46.817Z,23.60
2022-08-03T23:13:17.253Z,23.60
2022-08-03T23:15:50.698Z,23.50
2022-08-03T23:18:19.211Z,23.50
2022-08-03T23:20:48.960Z,23.40
2022-08-03T23:23:16.591Z,23.40
2022-08-03T23:25:49.488Z,23.40
2022-08-03T23:28:16.497Z,23.40
2022-08-03T23:30:44.398Z,23.30
2022-08-03T23:33:14.756Z,23.30
2022-08-03T23:36:27.550Z,23.30
2022-08-03T23:38:44.564Z,23.30
2022-08-03T23:41:13.340Z,23.30
2022-08-03T23:43:45.210Z,23.20
2022-08-03T23:46:19.629Z,23.20
2022-08-03T23:48:46.268Z,23.20
2022-08-03T23:51:23.539Z,23.20
2022-08-03T23:54:11.700Z,23.20
2022-08-03T23:57:10.366Z,23.20
